sensor_id;sensor_type;location;lat;lon;timestamp;pressure;altitude;pressure_sealevel;temperature;humidity
19827;BME280;10074;52.018;4.726;2022-10-16T00:02:35;46463.88;;;-144.79;100.00
19827;BME280;10074;52.018;4.726;2022-10-16T00:07:35;46469.88;;;-144.79;100.00
19827;BME280;10074;52.018;4.726;2022-10-16T00:12:36;46471.91;;;-144.79;100.00
19827;BME280;10074;52.018;4.726;2022-10-16T00:17:36;46471.91;;;-144.79;100.00
19827;BME280;10074;52.018;4.726;2022-10-16T00:22:36;46471.91;;;-144.79;100.00
19827;BME280;10074;52.018;4.726;2022-10-16T00:27:37;46471.91;;;-144.79;100.00
19827;BME280;10074;52.018;4.726;2022-10-16T00:32:37;46463.88;;;-144.79;100.00
19827;BME280;10074;52.018;4.726;2022-10-16T00:37:37;46465.88;;;-144.79;100.00
19827;BME280;10074;52.018;4.726;2022-10-16T00:42:38;46467.88;;;-144.79;100.00
19827;BME280;10074;52.018;4.726;2022-10-16T00:47:45;46467.88;;;-144.79;100.00
19827;BME280;10074;52.018;4.726;2022-10-16T00:52:50;46471.91;;;-144.79;100.00
19827;BME280;10074;52.018;4.726;2022-10-16T00:57:52;46469.88;;;-144.79;100.00
19827;BME280;10074;52.018;4.726;2022-10-16T01:02:57;46469.88;;;-144.79;100.00
19827;BME280;10074;52.018;4.726;2022-10-16T01:08:22;46465.88;;;-144.79;100.00
19827;BME280;10074;52.018;4.726;2022-10-16T01:13:32;46467.88;;;-144.79;100.00
19827;BME280;10074;52.018;4.726;2022-10-16T01:18:44;46469.88;;;-144.79;100.00
19827;BME280;10074;52.018;4.726;2022-10-16T01:29:25;46471.91;;;-144.79;100.00
19827;BME280;10074;52.018;4.726;2022-10-16T01:34:42;46465.88;;;-144.79;100.00
19827;BME280;10074;52.018;4.726;2022-10-16T01:39:47;46465.88;;;-144.79;100.00
19827;BME280;10074;52.018;4.726;2022-10-16T01:44:51;46471.91;;;-144.79;100.00
19827;BME280;10074;52.018;4.726;2022-10-16T01:49:56;46467.88;;;-144.79;100.00
19827;BME280;10074;52.018;4.726;2022-10-16T01:55:00;46469.88;;;-144.79;100.00
19827;BME280;10074;52.018;4.726;2022-10-16T02:00:07;46471.91;;;-144.79;100.00
19827;BME280;10074;52.018;4.726;2022-10-16T02:05:23;46467.88;;;-144.79;100.00
19827;BME280;10074;52.018;4.726;2022-10-16T02:10:26;46467.88;;;-144.79;100.00
19827;BME280;10074;52.018;4.726;2022-10-16T02:15:30;46471.91;;;-144.79;100.00
19827;BME280;10074;52.018;4.726;2022-10-16T02:20:37;46475.91;;;-144.79;100.00
19827;BME280;10074;52.018;4.726;2022-10-16T02:25:40;46471.91;;;-144.79;100.00
19827;BME280;10074;52.018;4.726;2022-10-16T02:30:47;46467.88;;;-144.79;100.00
19827;BME280;10074;52.018;4.726;2022-10-16T02:35:50;46473.91;;;-144.79;100.00
19827;BME280;10074;52.018;4.726;2022-10-16T02:40:52;46471.91;;;-144.79;100.00
19827;BME280;10074;52.018;4.726;2022-10-16T02:45:52;46469.88;;;-144.79;100.00
19827;BME280;10074;52.018;4.726;2022-10-16T02:50:53;46469.88;;;-144.79;100.00
19827;BME280;10074;52.018;4.726;2022-10-16T02:55:53;46471.91;;;-144.79;100.00
19827;BME280;10074;52.018;4.726;2022-10-16T03:00:54;46469.88;;;-144.79;100.00
19827;BME280;10074;52.018;4.726;2022-10-16T03:05:55;46469.88;;;-144.79;100.00
19827;BME280;10074;52.018;4.726;2022-10-16T03:10:55;46471.91;;;-144.79;100.00
19827;BME280;10074;52.018;4.726;2022-10-16T03:15:56;46471.91;;;-144.79;100.00
19827;BME280;10074;52.018;4.726;2022-10-16T03:20:56;46473.91;;;-144.79;100.00
19827;BME280;10074;52.018;4.726;2022-10-16T03:25:56;46471.91;;;-144.79;100.00
19827;BME280;10074;52.018;4.726;2022-10-16T03:30:56;46467.88;;;-144.79;100.00
19827;BME280;10074;52.018;4.726;2022-10-16T03:35:57;46469.88;;;-144.79;100.00
19827;BME280;10074;52.018;4.726;2022-10-16T03:40:57;46469.88;;;-144.79;100.00
19827;BME280;10074;52.018;4.726;2022-10-16T03:45:57;46475.91;;;-144.79;100.00
19827;BME280;10074;52.018;4.726;2022-10-16T03:51:00;46467.88;;;-144.79;100.00
19827;BME280;10074;52.018;4.726;2022-10-16T03:56:00;46471.91;;;-144.79;100.00
19827;BME280;10074;52.018;4.726;2022-10-16T04:01:00;46471.91;;;-144.79;100.00
19827;BME280;10074;52.018;4.726;2022-10-16T04:06:01;46469.88;;;-144.79;100.00
19827;BME280;10074;52.018;4.726;2022-10-16T04:11:01;46467.88;;;-144.79;100.00
19827;BME280;10074;52.018;4.726;2022-10-16T04:16:01;46469.88;;;-144.79;100.00
19827;BME280;10074;52.018;4.726;2022-10-16T04:21:04;46469.88;;;-144.79;100.00
19827;BME280;10074;52.018;4.726;2022-10-16T04:26:04;46471.91;;;-144.79;100.00
19827;BME280;10074;52.018;4.726;2022-10-16T04:31:06;46467.88;;;-144.79;100.00
19827;BME280;10074;52.018;4.726;2022-10-16T04:36:06;46469.88;;;-144.79;100.00
19827;BME280;10074;52.018;4.726;2022-10-16T04:41:07;46475.91;;;-144.79;100.00
19827;BME280;10074;52.018;4.726;2022-10-16T04:46:07;46467.88;;;-144.79;100.00
19827;BME280;10074;52.018;4.726;2022-10-16T04:51:08;46477.91;;;-144.79;100.00
19827;BME280;10074;52.018;4.726;2022-10-16T04:56:08;46469.88;;;-144.79;100.00
19827;BME280;10074;52.018;4.726;2022-10-16T05:01:08;46471.91;;;-144.79;100.00
19827;BME280;10074;52.018;4.726;2022-10-16T05:06:09;46467.88;;;-144.79;100.00
19827;BME280;10074;52.018;4.726;2022-10-16T05:11:09;46467.88;;;-144.79;100.00
19827;BME280;10074;52.018;4.726;2022-10-16T05:16:09;46471.91;;;-144.79;100.00
19827;BME280;10074;52.018;4.726;2022-10-16T05:21:10;46469.88;;;-144.79;100.00
19827;BME280;10074;52.018;4.726;2022-10-16T05:26:10;46469.88;;;-144.79;100.00
19827;BME280;10074;52.018;4.726;2022-10-16T05:31:10;46471.91;;;-144.79;100.00
19827;BME280;10074;52.018;4.726;2022-10-16T05:36:11;46473.91;;;-144.79;100.00
19827;BME280;10074;52.018;4.726;2022-10-16T05:41:11;46471.91;;;-144.79;100.00
19827;BME280;10074;52.018;4.726;2022-10-16T05:46:11;46473.91;;;-144.79;100.00
19827;BME280;10074;52.018;4.726;2022-10-16T05:51:13;46469.88;;;-144.79;100.00
19827;BME280;10074;52.018;4.726;2022-10-16T05:56:15;46465.88;;;-144.79;100.00
19827;BME280;10074;52.018;4.726;2022-10-16T06:01:17;46471.91;;;-144.79;100.00
19827;BME280;10074;52.018;4.726;2022-10-16T06:06:20;46467.88;;;-144.79;100.00
19827;BME280;10074;52.018;4.726;2022-10-16T06:11:24;46473.91;;;-144.79;100.00
19827;BME280;10074;52.018;4.726;2022-10-16T06:16:25;46471.91;;;-144.79;100.00
19827;BME280;10074;52.018;4.726;2022-10-16T06:21:27;46471.91;;;-144.79;100.00
19827;BME280;10074;52.018;4.726;2022-10-16T06:26:29;46467.88;;;-144.79;100.00
19827;BME280;10074;52.018;4.726;2022-10-16T06:31:30;46469.88;;;-144.79;100.00
19827;BME280;10074;52.018;4.726;2022-10-16T06:36:33;46467.88;;;-144.79;100.00
19827;BME280;10074;52.018;4.726;2022-10-16T06:41:34;46469.88;;;-144.79;100.00
19827;BME280;10074;52.018;4.726;2022-10-16T06:46:34;46463.88;;;-144.79;100.00
19827;BME280;10074;52.018;4.726;2022-10-16T06:51:34;46469.88;;;-144.79;100.00
19827;BME280;10074;52.018;4.726;2022-10-16T06:56:36;46469.88;;;-144.79;100.00
19827;BME280;10074;52.018;4.726;2022-10-16T07:01:37;46467.88;;;-144.79;100.00
19827;BME280;10074;52.018;4.726;2022-10-16T07:06:38;46475.91;;;-144.79;100.00
19827;BME280;10074;52.018;4.726;2022-10-16T07:11:40;46465.88;;;-144.79;100.00
19827;BME280;10074;52.018;4.726;2022-10-16T07:16:40;46473.91;;;-144.79;100.00
19827;BME280;10074;52.018;4.726;2022-10-16T07:21:41;46469.88;;;-144.79;100.00
19827;BME280;10074;52.018;4.726;2022-10-16T07:26:44;46471.91;;;-144.79;100.00
19827;BME280;10074;52.018;4.726;2022-10-16T07:31:45;46469.88;;;-144.79;100.00
19827;BME280;10074;52.018;4.726;2022-10-16T07:36:48;46473.91;;;-144.79;100.00
19827;BME280;10074;52.018;4.726;2022-10-16T07:41:49;46471.91;;;-144.79;100.00
19827;BME280;10074;52.018;4.726;2022-10-16T07:46:49;46475.91;;;-144.79;100.00
19827;BME280;10074;52.018;4.726;2022-10-16T07:51:50;46477.91;;;-144.79;100.00
19827;BME280;10074;52.018;4.726;2022-10-16T07:56:50;46471.91;;;-144.79;100.00
19827;BME280;10074;52.018;4.726;2022-10-16T08:01:50;46467.88;;;-144.79;100.00
19827;BME280;10074;52.018;4.726;2022-10-16T08:06:50;46471.91;;;-144.79;100.00
19827;BME280;10074;52.018;4.726;2022-10-16T08:11:51;46473.91;;;-144.79;100.00
19827;BME280;10074;52.018;4.726;2022-10-16T08:16:52;46479.91;;;-144.79;100.00
19827;BME280;10074;52.018;4.726;2022-10-16T08:21:53;46477.91;;;-144.79;100.00
19827;BME280;10074;52.018;4.726;2022-10-16T08:26:54;46473.91;;;-144.79;100.00
19827;BME280;10074;52.018;4.726;2022-10-16T08:31:54;46477.91;;;-144.79;100.00
19827;BME280;10074;52.018;4.726;2022-10-16T08:36:55;46477.91;;;-144.79;100.00
19827;BME280;10074;52.018;4.726;2022-10-16T08:42:11;46479.91;;;-144.79;100.00
19827;BME280;10074;52.018;4.726;2022-10-16T08:47:26;46475.91;;;-144.79;100.00
19827;BME280;10074;52.018;4.726;2022-10-16T08:52:34;46475.91;;;-144.79;100.00
19827;BME280;10074;52.018;4.726;2022-10-16T08:57:35;46473.91;;;-144.79;100.00
19827;BME280;10074;52.018;4.726;2022-10-16T09:02:52;46479.91;;;-144.79;100.00
19827;BME280;10074;52.018;4.726;2022-10-16T09:08:06;46477.91;;;-144.79;100.00
19827;BME280;10074;52.018;4.726;2022-10-16T09:13:21;46479.91;;;-144.79;100.00
19827;BME280;10074;52.018;4.726;2022-10-16T09:18:35;46475.91;;;-144.79;100.00
19827;BME280;10074;52.018;4.726;2022-10-16T09:23:40;46481.91;;;-144.79;100.00
19827;BME280;10074;52.018;4.726;2022-10-16T09:28:40;46481.91;;;-144.79;100.00
19827;BME280;10074;52.018;4.726;2022-10-16T09:33:41;46479.91;;;-144.79;100.00
19827;BME280;10074;52.018;4.726;2022-10-16T09:38:42;46479.91;;;-144.79;100.00
19827;BME280;10074;52.018;4.726;2022-10-16T09:48:48;46483.94;;;-144.79;100.00
19827;BME280;10074;52.018;4.726;2022-10-16T09:54:39;46481.91;;;-144.79;100.00
19827;BME280;10074;52.018;4.726;2022-10-16T09:59:17;46479.91;;;-144.79;100.00
19827;BME280;10074;52.018;4.726;2022-10-16T10:04:19;46479.91;;;-144.79;100.00
19827;BME280;10074;52.018;4.726;2022-10-16T10:09:30;46481.91;;;-144.79;100.00
19827;BME280;10074;52.018;4.726;2022-10-16T10:14:35;46485.94;;;-144.79;100.00
19827;BME280;10074;52.018;4.726;2022-10-16T10:25:00;46479.91;;;-144.79;100.00
19827;BME280;10074;52.018;4.726;2022-10-16T10:35:53;46485.94;;;-144.79;100.00
19827;BME280;10074;52.018;4.726;2022-10-16T10:41:09;46483.94;;;-144.79;100.00
19827;BME280;10074;52.018;4.726;2022-10-16T10:46:32;46481.91;;;-144.79;100.00
19827;BME280;10074;52.018;4.726;2022-10-16T10:57:10;46481.91;;;-144.79;100.00
19827;BME280;10074;52.018;4.726;2022-10-16T11:08:03;46481.91;;;-144.79;100.00
19827;BME280;10074;52.018;4.726;2022-10-16T11:13:20;46481.91;;;-144.79;100.00
19827;BME280;10074;52.018;4.726;2022-10-16T11:18:50;46481.91;;;-144.79;100.00
19827;BME280;10074;52.018;4.726;2022-10-16T11:24:21;46481.91;;;-144.79;100.00
19827;BME280;10074;52.018;4.726;2022-10-16T11:29:25;46481.91;;;-144.79;100.00
19827;BME280;10074;52.018;4.726;2022-10-16T11:34:38;46481.91;;;-144.79;100.00
19827;BME280;10074;52.018;4.726;2022-10-16T11:39:42;46483.94;;;-144.79;100.00
19827;BME280;10074;52.018;4.726;2022-10-16T11:44:51;46481.91;;;-144.79;100.00
19827;BME280;10074;52.018;4.726;2022-10-16T11:50:01;46479.91;;;-144.79;100.00
19827;BME280;10074;52.018;4.726;2022-10-16T11:55:14;46483.94;;;-144.79;100.00
19827;BME280;10074;52.018;4.726;2022-10-16T12:00:24;46483.94;;;-144.79;100.00
19827;BME280;10074;52.018;4.726;2022-10-16T12:10:48;46481.91;;;-144.79;100.00
19827;BME280;10074;52.018;4.726;2022-10-16T12:15:48;46483.94;;;-144.79;100.00
19827;BME280;10074;52.018;4.726;2022-10-16T12:20:59;46483.94;;;-144.79;100.00
19827;BME280;10074;52.018;4.726;2022-10-16T12:26:05;46483.94;;;-144.79;100.00
19827;BME280;10074;52.018;4.726;2022-10-16T12:31:07;46479.91;;;-144.79;100.00
19827;BME280;10074;52.018;4.726;2022-10-16T12:36:28;46475.91;;;-144.79;100.00
19827;BME280;10074;52.018;4.726;2022-10-16T12:41:33;46475.91;;;-144.79;100.00
19827;BME280;10074;52.018;4.726;2022-10-16T12:46:39;46479.91;;;-144.79;100.00
19827;BME280;10074;52.018;4.726;2022-10-16T12:51:41;46481.91;;;-144.79;100.00
19827;BME280;10074;52.018;4.726;2022-10-16T13:02:39;46481.91;;;-144.79;100.00
19827;BME280;10074;52.018;4.726;2022-10-16T13:13:22;46481.91;;;-144.79;100.00
19827;BME280;10074;52.018;4.726;2022-10-16T13:18:29;46479.91;;;-144.79;100.00
19827;BME280;10074;52.018;4.726;2022-10-16T13:23:38;46483.94;;;-144.79;100.00
19827;BME280;10074;52.018;4.726;2022-10-16T13:28:42;46477.91;;;-144.79;100.00
19827;BME280;10074;52.018;4.726;2022-10-16T13:33:46;46479.91;;;-144.79;100.00
19827;BME280;10074;52.018;4.726;2022-10-16T13:38:48;46479.91;;;-144.79;100.00
19827;BME280;10074;52.018;4.726;2022-10-16T13:43:50;46483.94;;;-144.79;100.00
19827;BME280;10074;52.018;4.726;2022-10-16T13:49:03;46475.91;;;-144.79;100.00
19827;BME280;10074;52.018;4.726;2022-10-16T13:54:03;46477.91;;;-144.79;100.00
19827;BME280;10074;52.018;4.726;2022-10-16T13:59:06;46485.94;;;-144.79;100.00
19827;BME280;10074;52.018;4.726;2022-10-16T14:04:09;46477.91;;;-144.79;100.00
19827;BME280;10074;52.018;4.726;2022-10-16T14:09:30;46479.91;;;-144.79;100.00
19827;BME280;10074;52.018;4.726;2022-10-16T14:14:42;46479.91;;;-144.79;100.00
19827;BME280;10074;52.018;4.726;2022-10-16T14:19:46;46477.91;;;-144.79;100.00
19827;BME280;10074;52.018;4.726;2022-10-16T14:24:47;46483.94;;;-144.79;100.00
19827;BME280;10074;52.018;4.726;2022-10-16T14:29:47;46483.94;;;-144.79;100.00
19827;BME280;10074;52.018;4.726;2022-10-16T14:34:53;46477.91;;;-144.79;100.00
19827;BME280;10074;52.018;4.726;2022-10-16T14:39:54;46475.91;;;-144.79;100.00
19827;BME280;10074;52.018;4.726;2022-10-16T14:44:55;46477.91;;;-144.79;100.00
19827;BME280;10074;52.018;4.726;2022-10-16T14:49:56;46479.91;;;-144.79;100.00
19827;BME280;10074;52.018;4.726;2022-10-16T14:54:59;46479.91;;;-144.79;100.00
19827;BME280;10074;52.018;4.726;2022-10-16T14:59:59;46475.91;;;-144.79;100.00
19827;BME280;10074;52.018;4.726;2022-10-16T15:05:25;46481.91;;;-144.79;100.00
19827;BME280;10074;52.018;4.726;2022-10-16T15:10:27;46477.91;;;-144.79;100.00
19827;BME280;10074;52.018;4.726;2022-10-16T15:15:34;46477.91;;;-144.79;100.00
19827;BME280;10074;52.018;4.726;2022-10-16T15:20:38;46475.91;;;-144.79;100.00
19827;BME280;10074;52.018;4.726;2022-10-16T15:25:45;46475.91;;;-144.79;100.00
19827;BME280;10074;52.018;4.726;2022-10-16T15:30:49;46481.91;;;-144.79;100.00
19827;BME280;10074;52.018;4.726;2022-10-16T15:35:51;46479.91;;;-144.79;100.00
19827;BME280;10074;52.018;4.726;2022-10-16T15:40:51;46479.91;;;-144.79;100.00
19827;BME280;10074;52.018;4.726;2022-10-16T15:46:06;46473.91;;;-144.79;100.00
19827;BME280;10074;52.018;4.726;2022-10-16T15:51:08;46477.91;;;-144.79;100.00
19827;BME280;10074;52.018;4.726;2022-10-16T15:56:10;46475.91;;;-144.79;100.00
19827;BME280;10074;52.018;4.726;2022-10-16T16:01:11;46471.91;;;-144.79;100.00
19827;BME280;10074;52.018;4.726;2022-10-16T16:06:13;46477.91;;;-144.79;100.00
19827;BME280;10074;52.018;4.726;2022-10-16T16:11:14;46475.91;;;-144.79;100.00
19827;BME280;10074;52.018;4.726;2022-10-16T16:16:16;46475.91;;;-144.79;100.00
19827;BME280;10074;52.018;4.726;2022-10-16T16:21:17;46479.91;;;-144.79;100.00
19827;BME280;10074;52.018;4.726;2022-10-16T16:26:26;46471.91;;;-144.79;100.00
19827;BME280;10074;52.018;4.726;2022-10-16T16:31:28;46473.91;;;-144.79;100.00
19827;BME280;10074;52.018;4.726;2022-10-16T16:36:29;46475.91;;;-144.79;100.00
19827;BME280;10074;52.018;4.726;2022-10-16T16:41:29;46471.91;;;-144.79;100.00
19827;BME280;10074;52.018;4.726;2022-10-16T16:46:31;46473.91;;;-144.79;100.00
19827;BME280;10074;52.018;4.726;2022-10-16T16:51:32;46477.91;;;-144.79;100.00
19827;BME280;10074;52.018;4.726;2022-10-16T16:56:33;46477.91;;;-144.79;100.00
19827;BME280;10074;52.018;4.726;2022-10-16T17:01:33;46477.91;;;-144.79;100.00
19827;BME280;10074;52.018;4.726;2022-10-16T17:06:33;46473.91;;;-144.79;100.00
19827;BME280;10074;52.018;4.726;2022-10-16T17:11:34;46477.91;;;-144.79;100.00
19827;BME280;10074;52.018;4.726;2022-10-16T17:16:36;46471.91;;;-144.79;100.00
19827;BME280;10074;52.018;4.726;2022-10-16T17:21:37;46471.91;;;-144.79;100.00
19827;BME280;10074;52.018;4.726;2022-10-16T17:26:37;46475.91;;;-144.79;100.00
19827;BME280;10074;52.018;4.726;2022-10-16T17:31:40;46477.91;;;-144.79;100.00
19827;BME280;10074;52.018;4.726;2022-10-16T17:36:40;46471.91;;;-144.79;100.00
19827;BME280;10074;52.018;4.726;2022-10-16T17:41:43;46471.91;;;-144.79;100.00
19827;BME280;10074;52.018;4.726;2022-10-16T17:46:53;46469.88;;;-144.79;100.00
19827;BME280;10074;52.018;4.726;2022-10-16T17:51:53;46469.88;;;-144.79;100.00
19827;BME280;10074;52.018;4.726;2022-10-16T17:56:54;46471.91;;;-144.79;100.00
19827;BME280;10074;52.018;4.726;2022-10-16T18:01:54;46471.91;;;-144.79;100.00
19827;BME280;10074;52.018;4.726;2022-10-16T18:06:54;46473.91;;;-144.79;100.00
19827;BME280;10074;52.018;4.726;2022-10-16T18:11:55;46471.91;;;-144.79;100.00
19827;BME280;10074;52.018;4.726;2022-10-16T18:17:01;46469.88;;;-144.79;100.00
19827;BME280;10074;52.018;4.726;2022-10-16T18:22:02;46469.88;;;-144.79;100.00
19827;BME280;10074;52.018;4.726;2022-10-16T18:27:02;46469.88;;;-144.79;100.00
19827;BME280;10074;52.018;4.726;2022-10-16T18:32:02;46471.91;;;-144.79;100.00
19827;BME280;10074;52.018;4.726;2022-10-16T18:37:03;46465.88;;;-144.79;100.00
19827;BME280;10074;52.018;4.726;2022-10-16T18:42:03;46461.88;;;-144.79;100.00
19827;BME280;10074;52.018;4.726;2022-10-16T18:47:03;46471.91;;;-144.79;100.00
19827;BME280;10074;52.018;4.726;2022-10-16T18:52:04;46467.88;;;-144.79;100.00
19827;BME280;10074;52.018;4.726;2022-10-16T18:57:04;46471.91;;;-144.79;100.00
19827;BME280;10074;52.018;4.726;2022-10-16T19:02:05;46471.91;;;-144.79;100.00
19827;BME280;10074;52.018;4.726;2022-10-16T19:07:06;46471.91;;;-144.79;100.00
19827;BME280;10074;52.018;4.726;2022-10-16T19:12:07;46471.91;;;-144.79;100.00
19827;BME280;10074;52.018;4.726;2022-10-16T19:17:07;46469.88;;;-144.79;100.00
19827;BME280;10074;52.018;4.726;2022-10-16T19:22:07;46467.88;;;-144.79;100.00
19827;BME280;10074;52.018;4.726;2022-10-16T19:27:11;46467.88;;;-144.79;100.00
19827;BME280;10074;52.018;4.726;2022-10-16T19:32:11;46467.88;;;-144.79;100.00
19827;BME280;10074;52.018;4.726;2022-10-16T19:37:12;46465.88;;;-144.79;100.00
19827;BME280;10074;52.018;4.726;2022-10-16T19:42:12;46471.91;;;-144.79;100.00
19827;BME280;10074;52.018;4.726;2022-10-16T19:47:12;46471.91;;;-144.79;100.00
19827;BME280;10074;52.018;4.726;2022-10-16T19:52:12;46471.91;;;-144.79;100.00
19827;BME280;10074;52.018;4.726;2022-10-16T19:57:13;46471.91;;;-144.79;100.00
19827;BME280;10074;52.018;4.726;2022-10-16T20:02:13;46471.91;;;-144.79;100.00
19827;BME280;10074;52.018;4.726;2022-10-16T20:07:13;46471.91;;;-144.79;100.00
19827;BME280;10074;52.018;4.726;2022-10-16T20:12:15;46473.91;;;-144.79;100.00
19827;BME280;10074;52.018;4.726;2022-10-16T20:17:15;46469.88;;;-144.79;100.00
19827;BME280;10074;52.018;4.726;2022-10-16T20:22:16;46467.88;;;-144.79;100.00
19827;BME280;10074;52.018;4.726;2022-10-16T20:27:16;46463.88;;;-144.79;100.00
19827;BME280;10074;52.018;4.726;2022-10-16T20:32:16;46471.91;;;-144.79;100.00
19827;BME280;10074;52.018;4.726;2022-10-16T20:37:17;46467.88;;;-144.79;100.00
19827;BME280;10074;52.018;4.726;2022-10-16T20:42:17;46463.88;;;-144.79;100.00
19827;BME280;10074;52.018;4.726;2022-10-16T20:47:17;46467.88;;;-144.79;100.00
19827;BME280;10074;52.018;4.726;2022-10-16T20:52:18;46465.88;;;-144.79;100.00
19827;BME280;10074;52.018;4.726;2022-10-16T20:57:18;46465.88;;;-144.79;100.00
19827;BME280;10074;52.018;4.726;2022-10-16T21:02:18;46465.88;;;-144.79;100.00
19827;BME280;10074;52.018;4.726;2022-10-16T21:07:19;46461.88;;;-144.79;100.00
19827;BME280;10074;52.018;4.726;2022-10-16T21:12:19;46463.88;;;-144.79;100.00
19827;BME280;10074;52.018;4.726;2022-10-16T21:17:19;46463.88;;;-144.79;100.00
19827;BME280;10074;52.018;4.726;2022-10-16T21:22:19;46467.88;;;-144.79;100.00
19827;BME280;10074;52.018;4.726;2022-10-16T21:27:20;46463.88;;;-144.79;100.00
19827;BME280;10074;52.018;4.726;2022-10-16T21:32:20;46459.88;;;-144.79;100.00
19827;BME280;10074;52.018;4.726;2022-10-16T21:37:20;46465.88;;;-144.79;100.00
19827;BME280;10074;52.018;4.726;2022-10-16T21:42:21;46461.88;;;-144.79;100.00
19827;BME280;10074;52.018;4.726;2022-10-16T21:47:21;46469.88;;;-144.79;100.00
19827;BME280;10074;52.018;4.726;2022-10-16T21:52:21;46459.88;;;-144.79;100.00
19827;BME280;10074;52.018;4.726;2022-10-16T21:57:22;46463.88;;;-144.79;100.00
19827;BME280;10074;52.018;4.726;2022-10-16T22:02:22;46463.88;;;-144.79;100.00
19827;BME280;10074;52.018;4.726;2022-10-16T22:07:22;46459.88;;;-144.79;100.00
19827;BME280;10074;52.018;4.726;2022-10-16T22:12:23;46463.88;;;-144.79;100.00
19827;BME280;10074;52.018;4.726;2022-10-16T22:17:23;46457.88;;;-144.79;100.00
19827;BME280;10074;52.018;4.726;2022-10-16T22:22:23;46465.88;;;-144.79;100.00
19827;BME280;10074;52.018;4.726;2022-10-16T22:27:24;46465.88;;;-144.79;100.00
19827;BME280;10074;52.018;4.726;2022-10-16T22:32:24;46463.88;;;-144.79;100.00
19827;BME280;10074;52.018;4.726;2022-10-16T22:37:24;46463.88;;;-144.79;100.00
19827;BME280;10074;52.018;4.726;2022-10-16T22:42:24;46459.88;;;-144.79;100.00
19827;BME280;10074;52.018;4.726;2022-10-16T22:47:25;46461.88;;;-144.79;100.00
19827;BME280;10074;52.018;4.726;2022-10-16T22:52:25;46465.88;;;-144.79;100.00
19827;BME280;10074;52.018;4.726;2022-10-16T22:57:25;46463.88;;;-144.79;100.00
19827;BME280;10074;52.018;4.726;2022-10-16T23:02:26;46457.88;;;-144.79;100.00
19827;BME280;10074;52.018;4.726;2022-10-16T23:07:26;46457.88;;;-144.79;100.00
19827;BME280;10074;52.018;4.726;2022-10-16T23:12:26;46457.88;;;-144.79;100.00
19827;BME280;10074;52.018;4.726;2022-10-16T23:17:27;46463.88;;;-144.79;100.00
19827;BME280;10074;52.018;4.726;2022-10-16T23:22:27;46463.88;;;-144.79;100.00
19827;BME280;10074;52.018;4.726;2022-10-16T23:27:27;46463.88;;;-144.79;100.00
19827;BME280;10074;52.018;4.726;2022-10-16T23:32:27;46459.88;;;-144.79;100.00
19827;BME280;10074;52.018;4.726;2022-10-16T23:37:28;46461.88;;;-144.79;100.00
19827;BME280;10074;52.018;4.726;2022-10-16T23:42:28;46465.88;;;-144.79;100.00
19827;BME280;10074;52.018;4.726;2022-10-16T23:47:28;46463.88;;;-144.79;100.00
19827;BME280;10074;52.018;4.726;2022-10-16T23:52:29;46461.88;;;-144.79;100.00
19827;BME280;10074;52.018;4.726;2022-10-16T23:57:30;46461.88;;;-144.79;100.00
